Time;durP1;ratioP1;P1;durP2;ratioP2;P2;SDS_P1;SDS_P2;PMS_P1;PMS_P2;Temp;Humidity;BMP_temperature;BMP_pressure;BME280_temperature;BME280_humidity;BME280_pressure;Samples;Min_cycle;Max_cycle;Signal;HPM_P1;HPM_P2
2023/01/20 00:01:29;;;;;;;11.23;9.60;;;4.00;99.90;;;;;;5015090;28;20466;-52
2023/01/20 00:03:56;;;;;;;11.43;9.50;;;4.00;99.90;;;;;;5014235;28;20446;-53
2023/01/20 00:06:24;;;;;;;10.67;9.07;;;4.00;99.90;;;;;;5014766;28;20407;-51
2023/01/20 00:08:50;;;;;;;12.23;9.47;;;4.00;99.90;;;;;;5014292;28;20411;-55
2023/01/20 00:11:16;;;;;;;10.03;8.73;;;4.00;99.90;;;;;;5014850;28;20422;-50
2023/01/20 00:13:41;;;;;;;11.20;9.47;;;4.00;99.90;;;;;;5012940;28;20188;-50
2023/01/20 00:16:09;;;;;;;11.03;8.83;;;3.90;99.90;;;;;;5014575;28;20528;-52
2023/01/20 00:18:35;;;;;;;9.80;8.80;;;4.00;99.90;;;;;;5014555;28;20226;-51
2023/01/20 00:21:05;;;;;;;14.07;9.47;;;4.00;99.90;;;;;;5014491;28;20498;-51
2023/01/20 00:23:31;;;;;;;11.53;9.30;;;4.00;99.90;;;;;;5014138;28;20193;-50
2023/01/20 00:25:57;;;;;;;11.27;9.27;;;4.00;99.90;;;;;;5014160;28;20192;-50
2023/01/20 00:28:22;;;;;;;12.03;9.30;;;4.00;99.90;;;;;;5014404;28;20224;-53
2023/01/20 00:30:48;;;;;;;12.50;9.73;;;4.00;99.90;;;;;;5012977;28;20199;-53
2023/01/20 00:33:13;;;;;;;11.60;9.30;;;4.00;99.90;;;;;;5014227;28;20235;-50
2023/01/20 00:35:39;;;;;;;10.73;9.17;;;4.00;99.90;;;;;;5013717;28;20195;-55
2023/01/20 00:38:04;;;;;;;11.50;9.57;;;3.90;99.90;;;;;;5014120;28;20172;-52
2023/01/20 00:40:30;;;;;;;11.47;9.00;;;4.00;99.90;;;;;;5014163;28;20183;-51
2023/01/20 00:42:55;;;;;;;11.03;9.37;;;3.90;99.90;;;;;;5013271;28;20200;-53
2023/01/20 00:45:21;;;;;;;10.13;9.00;;;3.90;99.90;;;;;;5012202;28;20188;-49
2023/01/20 00:47:46;;;;;;;11.20;9.17;;;3.90;99.90;;;;;;5012539;28;20169;-51
2023/01/20 00:50:12;;;;;;;10.47;8.60;;;3.90;99.90;;;;;;5013932;28;20183;-54
2023/01/20 00:52:37;;;;;;;10.40;9.27;;;3.80;99.90;;;;;;5013796;28;20177;-55
2023/01/20 00:55:03;;;;;;;10.30;9.00;;;3.80;99.90;;;;;;5013718;28;20520;-52
2023/01/20 00:57:29;;;;;;;11.00;9.60;;;3.90;99.90;;;;;;5013682;28;20191;-50
2023/01/20 00:59:54;;;;;;;10.03;8.77;;;3.90;99.90;;;;;;5013868;28;20177;-54
2023/01/20 01:02:20;;;;;;;11.17;9.30;;;3.90;99.90;;;;;;5013559;28;20165;-50
2023/01/20 01:04:49;;;;;;;12.00;8.67;;;3.90;99.90;;;;;;5013515;28;20204;-50
2023/01/20 01:07:15;;;;;;;11.77;9.80;;;3.90;99.90;;;;;;5013560;28;20177;-50
2023/01/20 01:09:41;;;;;;;10.90;9.43;;;3.90;99.90;;;;;;5013631;28;20437;-51
2023/01/20 01:12:06;;;;;;;11.73;9.37;;;3.90;99.90;;;;;;5011395;28;20407;-51
2023/01/20 01:14:32;;;;;;;12.43;9.17;;;3.90;99.90;;;;;;5013224;28;20196;-51
2023/01/20 01:16:57;;;;;;;10.53;8.43;;;3.90;99.90;;;;;;5013431;28;20188;-55
2023/01/20 01:19:23;;;;;;;10.87;9.37;;;3.90;99.90;;;;;;5013454;28;20203;-53
2023/01/20 01:21:49;;;;;;;11.17;9.13;;;3.80;99.90;;;;;;5013454;28;20208;-52
2023/01/20 01:24:14;;;;;;;11.47;9.03;;;3.80;99.90;;;;;;5011771;28;20216;-53
2023/01/20 01:26:40;;;;;;;10.43;9.33;;;3.80;99.90;;;;;;5013300;28;20597;-50
2023/01/20 01:29:05;;;;;;;10.97;9.30;;;3.80;99.90;;;;;;5013461;28;20193;-50
2023/01/20 01:31:31;;;;;;;11.03;8.97;;;3.80;99.90;;;;;;5013194;28;20208;-51
2023/01/20 01:33:56;;;;;;;11.03;9.17;;;3.80;99.90;;;;;;5012737;28;20239;-53
2023/01/20 01:36:22;;;;;;;11.30;9.70;;;3.80;99.90;;;;;;5013502;28;20203;-50
2023/01/20 01:38:47;;;;;;;10.70;9.00;;;3.80;99.90;;;;;;5012907;28;20179;-52
2023/01/20 01:41:14;;;;;;;9.87;8.87;;;3.80;99.90;;;;;;5013133;28;20172;-52
2023/01/20 01:44:09;;;;;;;12.67;10.50;;;3.80;99.90;;;;;;5012583;28;20188;-52
2023/01/20 01:46:35;;;;;;;13.03;10.13;;;3.80;99.90;;;;;;5013027;28;20399;-50
2023/01/20 01:49:06;;;;;;;11.27;9.13;;;3.70;99.90;;;;;;5012963;28;20449;-52
2023/01/20 01:51:40;;;;;;;10.70;8.73;;;3.70;99.90;;;;;;5026025;28;20798;-53
2023/01/20 01:54:12;;;;;;;12.03;9.70;;;3.60;99.90;;;;;;5032070;28;20426;-51
2023/01/20 01:56:41;;;;;;;10.80;8.87;;;3.60;99.90;;;;;;5032697;28;20537;-53
2023/01/20 01:59:08;;;;;;;11.27;10.07;;;3.60;99.90;;;;;;5032448;28;20401;-54
2023/01/20 02:01:35;;;;;;;9.47;8.20;;;3.70;99.90;;;;;;5032583;28;20795;-52
2023/01/20 02:04:11;;;;;;;11.37;8.40;;;3.70;99.90;;;;;;5032113;28;20417;-50
2023/01/20 02:06:40;;;;;;;11.83;9.13;;;3.70;99.90;;;;;;5032126;28;20402;-53
2023/01/20 02:09:06;;;;;;;13.53;10.43;;;3.70;99.90;;;;;;5032392;28;20917;-52
2023/01/20 02:11:37;;;;;;;10.20;8.87;;;3.70;99.90;;;;;;5032231;28;20407;-50
2023/01/20 02:14:03;;;;;;;12.63;9.63;;;3.70;99.90;;;;;;5031901;28;20592;-51
2023/01/20 02:17:09;;;;;;;12.63;9.70;;;3.60;99.90;;;;;;5030772;28;20433;-52
2023/01/20 02:19:35;;;;;;;12.33;9.97;;;3.60;99.90;;;;;;4970982;28;20424;-51
2023/01/20 02:22:27;;;;;;;10.70;9.33;;;3.60;99.90;;;;;;4954598;28;20421;-53
2023/01/20 02:25:19;;;;;;;13.10;10.87;;;3.60;99.90;;;;;;4970677;28;20609;-50
2023/01/20 02:28:06;;;;;;;13.30;9.90;;;3.60;99.90;;;;;;4970593;28;20498;-52
2023/01/20 02:30:46;;;;;;;12.57;9.63;;;3.60;99.90;;;;;;4970925;28;20463;-50
2023/01/20 02:33:58;;;;;;;11.67;9.93;;;3.60;99.90;;;;;;4970558;28;20475;-49
2023/01/20 02:36:42;;;;;;;11.73;9.87;;;3.30;99.90;;;;;;4913086;29;20499;-49
2023/01/20 02:39:20;;;;;;;12.90;9.90;;;3.20;99.90;;;;;;4913458;29;20406;-50
2023/01/20 02:42:13;;;;;;;12.60;9.70;;;3.00;99.90;;;;;;4913210;29;20408;-51
2023/01/20 02:44:52;;;;;;;11.47;9.70;;;2.90;99.90;;;;;;4912949;29;20470;-51
2023/01/20 02:47:53;;;;;;;10.30;8.83;;;2.70;99.90;;;;;;4913050;29;20424;-53
2023/01/20 02:50:21;;;;;;;13.17;9.83;;;2.60;99.90;;;;;;4903251;29;20521;-50
2023/01/20 02:52:56;;;;;;;12.67;9.53;;;2.70;99.90;;;;;;4922568;28;20803;-50
2023/01/20 02:55:38;;;;;;;12.27;10.00;;;2.50;99.90;;;;;;4970296;28;20419;-52
2023/01/20 02:58:13;;;;;;;11.70;9.90;;;2.50;99.90;;;;;;4970462;28;20914;-55
2023/01/20 03:00:44;;;;;;;12.37;10.37;;;2.60;99.90;;;;;;4970475;28;20413;-51
2023/01/20 03:03:15;;;;;;;12.50;10.57;;;2.50;99.90;;;;;;4970218;28;20980;-50
2023/01/20 03:05:51;;;;;;;12.60;9.97;;;2.30;99.90;;;;;;4953911;28;20557;-50
2023/01/20 03:08:18;;;;;;;11.83;10.03;;;2.30;99.90;;;;;;5031312;28;20915;-53
2023/01/20 03:10:46;;;;;;;14.57;10.03;;;2.30;99.90;;;;;;5031446;28;20408;-52
2023/01/20 03:13:41;;;;;;;12.10;9.63;;;2.30;99.90;;;;;;5031327;28;20477;-50
2023/01/20 03:16:11;;;;;;;11.97;10.23;;;2.40;99.90;;;;;;4970003;28;20437;-51
2023/01/20 03:18:38;;;;;;;12.30;9.97;;;2.60;99.90;;;;;;4970286;28;20495;-50
2023/01/20 03:21:05;;;;;;;11.73;9.87;;;2.40;99.90;;;;;;4969997;28;20413;-53
2023/01/20 03:23:35;;;;;;;11.67;9.80;;;2.60;99.90;;;;;;4970008;28;20577;-50
2023/01/20 03:26:06;;;;;;;11.80;10.03;;;2.70;99.90;;;;;;4969609;28;20511;-51
2023/01/20 03:28:32;;;;;;;11.67;10.23;;;2.80;99.90;;;;;;4970195;28;20499;-54
2023/01/20 03:30:59;;;;;;;13.50;9.53;;;2.90;99.90;;;;;;4969822;28;20496;-50
2023/01/20 03:33:25;;;;;;;11.77;10.30;;;2.80;99.90;;;;;;4969840;28;20276;-51
2023/01/20 03:35:51;;;;;;;13.07;10.83;;;2.90;99.90;;;;;;4973112;28;20491;-50
2023/01/20 03:38:17;;;;;;;11.13;9.83;;;3.00;99.90;;;;;;4974113;28;20416;-51
2023/01/20 03:41:12;;;;;;;11.77;9.57;;;3.00;99.90;;;;;;4973813;28;20417;-53
2023/01/20 03:43:49;;;;;;;10.97;9.43;;;3.10;99.90;;;;;;4973575;28;20224;-55
2023/01/20 03:46:28;;;;;;;11.87;9.80;;;3.20;99.90;;;;;;4973737;28;20473;-53
2023/01/20 03:49:08;;;;;;;14.03;10.23;;;3.20;99.90;;;;;;4973794;28;20408;-52
2023/01/20 03:51:41;;;;;;;12.80;10.23;;;3.10;99.90;;;;;;4980519;28;20405;-50
2023/01/20 03:54:10;;;;;;;11.43;10.03;;;3.10;99.90;;;;;;5034649;28;20418;-51
2023/01/20 03:57:03;;;;;;;14.20;10.27;;;3.10;99.90;;;;;;5034730;28;20405;-50
2023/01/20 03:59:33;;;;;;;12.60;10.00;;;3.10;99.90;;;;;;5034922;28;20410;-50
2023/01/20 04:02:03;;;;;;;11.90;9.87;;;3.10;99.90;;;;;;5033258;28;20418;-51
2023/01/20 04:04:30;;;;;;;11.73;10.33;;;3.10;99.90;;;;;;5034311;28;20449;-50
2023/01/20 04:06:55;;;;;;;12.17;10.57;;;3.00;99.90;;;;;;5029893;28;20451;-51
2023/01/20 04:09:30;;;;;;;11.77;9.93;;;3.00;99.90;;;;;;5014636;28;20400;-50
2023/01/20 04:11:56;;;;;;;11.30;9.77;;;3.00;99.90;;;;;;5014745;28;20596;-51
2023/01/20 04:14:22;;;;;;;11.50;10.30;;;3.10;99.90;;;;;;5014301;28;20471;-50
2023/01/20 04:16:53;;;;;;;11.60;10.20;;;3.20;99.90;;;;;;5014717;28;20243;-50
2023/01/20 04:19:19;;;;;;;13.07;11.17;;;3.20;99.90;;;;;;5014699;28;20176;-52
2023/01/20 04:21:52;;;;;;;11.80;9.83;;;3.20;99.90;;;;;;5014558;28;20415;-50
2023/01/20 04:24:27;;;;;;;12.77;9.93;;;3.20;99.90;;;;;;5014068;28;20231;-53
2023/01/20 04:26:53;;;;;;;14.40;11.50;;;3.20;99.90;;;;;;5013275;28;20438;-52
2023/01/20 04:29:18;;;;;;;12.87;10.00;;;3.10;99.90;;;;;;5014377;28;20765;-52
2023/01/20 04:31:44;;;;;;;13.57;10.27;;;3.10;99.90;;;;;;5014400;28;20672;-55
2023/01/20 04:34:12;;;;;;;12.80;10.90;;;3.20;99.90;;;;;;5013878;28;20554;-52
2023/01/20 04:36:37;;;;;;;11.90;10.33;;;3.20;99.90;;;;;;5014374;28;20616;-54
2023/01/20 04:39:03;;;;;;;13.20;11.00;;;3.20;99.90;;;;;;5014241;28;20418;-51
2023/01/20 04:41:28;;;;;;;11.57;9.93;;;3.20;99.90;;;;;;5014233;28;20176;-51
2023/01/20 04:43:54;;;;;;;11.53;9.90;;;3.30;99.90;;;;;;5013892;28;20199;-52
2023/01/20 04:46:20;;;;;;;12.37;10.17;;;3.30;99.90;;;;;;5013089;28;20260;-52
2023/01/20 04:48:45;;;;;;;13.07;11.67;;;3.40;99.90;;;;;;5014126;28;20168;-52
2023/01/20 04:51:11;;;;;;;11.77;10.13;;;3.40;99.90;;;;;;5013839;28;20169;-50
2023/01/20 04:53:37;;;;;;;11.10;9.70;;;3.40;99.90;;;;;;5013686;28;20669;-53
2023/01/20 04:56:03;;;;;;;12.43;10.83;;;3.40;99.90;;;;;;5013763;28;20510;-50
2023/01/20 04:58:28;;;;;;;11.30;10.03;;;3.40;99.90;;;;;;5014036;28;20608;-54
2023/01/20 05:00:54;;;;;;;11.40;10.20;;;3.30;99.90;;;;;;5013715;28;20185;-51
2023/01/20 05:03:19;;;;;;;11.83;10.00;;;3.30;99.90;;;;;;5013726;28;20200;-49
2023/01/20 05:05:53;;;;;;;11.53;9.93;;;3.40;99.90;;;;;;5013091;28;20200;-53
2023/01/20 05:08:18;;;;;;;10.70;9.60;;;3.40;99.90;;;;;;5013776;28;20219;-51
2023/01/20 05:10:44;;;;;;;12.93;9.80;;;3.40;99.90;;;;;;5013609;28;20454;-52
2023/01/20 05:13:09;;;;;;;10.93;9.73;;;3.40;99.90;;;;;;5013658;28;20196;-52
2023/01/20 05:15:35;;;;;;;12.43;10.23;;;3.40;99.90;;;;;;5013406;28;20530;-53
2023/01/20 05:18:00;;;;;;;11.53;10.33;;;3.40;99.90;;;;;;5013362;28;20549;-54
2023/01/20 05:20:27;;;;;;;12.43;9.90;;;3.40;99.90;;;;;;5013538;28;20537;-52
2023/01/20 05:22:53;;;;;;;11.97;10.70;;;3.40;99.90;;;;;;5013205;28;20606;-54
2023/01/20 05:25:18;;;;;;;11.37;9.73;;;3.40;99.90;;;;;;5013037;28;20451;-53
2023/01/20 05:27:44;;;;;;;13.13;10.63;;;3.40;99.90;;;;;;5013206;28;20475;-51
2023/01/20 05:30:10;;;;;;;13.13;10.63;;;3.40;99.90;;;;;;5013410;28;20172;-54
2023/01/20 05:32:36;;;;;;;11.80;10.60;;;3.40;99.90;;;;;;5012891;28;20180;-52
2023/01/20 05:35:01;;;;;;;12.70;10.57;;;3.50;99.90;;;;;;5014073;28;20411;-50
2023/01/20 05:37:27;;;;;;;12.10;9.80;;;3.50;99.90;;;;;;5013087;28;20643;-49
2023/01/20 05:39:52;;;;;;;12.30;10.37;;;3.50;99.90;;;;;;5013001;28;20168;-51
2023/01/20 05:42:18;;;;;;;11.50;10.30;;;3.50;99.90;;;;;;5013084;28;20218;-56
2023/01/20 05:44:43;;;;;;;12.33;10.50;;;3.50;99.90;;;;;;5012328;28;20200;-50
2023/01/20 05:47:09;;;;;;;13.37;10.47;;;3.60;99.90;;;;;;5012836;28;20173;-52
2023/01/20 05:49:35;;;;;;;11.40;10.13;;;3.60;99.90;;;;;;5012795;28;20309;-51
2023/01/20 05:52:00;;;;;;;12.90;11.13;;;3.70;99.90;;;;;;5012783;28;20471;-50
2023/01/20 05:54:26;;;;;;;12.37;11.07;;;3.70;99.90;;;;;;5012417;28;20195;-52
2023/01/20 05:56:51;;;;;;;15.20;11.17;;;3.60;99.90;;;;;;5012283;28;20164;-53
2023/01/20 05:59:17;;;;;;;13.13;10.83;;;3.60;99.90;;;;;;5012563;28;20170;-53
2023/01/20 06:01:42;;;;;;;12.37;10.83;;;3.60;99.90;;;;;;5012560;28;20169;-52
2023/01/20 06:04:08;;;;;;;12.03;10.03;;;3.70;99.90;;;;;;5012096;28;20192;-51
2023/01/20 06:06:34;;;;;;;15.83;11.40;;;3.60;99.90;;;;;;5012472;28;20165;-50
2023/01/20 06:09:00;;;;;;;12.50;11.13;;;3.60;99.90;;;;;;5012553;28;20275;-54
2023/01/20 06:11:25;;;;;;;12.57;11.10;;;3.60;99.90;;;;;;5012445;28;20169;-50
2023/01/20 06:13:51;;;;;;;13.57;11.50;;;3.60;99.90;;;;;;5012069;28;20610;-51
2023/01/20 06:16:17;;;;;;;13.97;10.50;;;3.70;99.90;;;;;;5012138;28;20177;-52
2023/01/20 06:18:43;;;;;;;12.47;11.03;;;3.70;99.90;;;;;;5010876;28;20272;-51
2023/01/20 06:21:09;;;;;;;15.13;13.00;;;3.70;99.90;;;;;;5012120;28;20180;-51
2023/01/20 06:23:35;;;;;;;14.23;12.73;;;3.70;99.90;;;;;;5012046;28;20188;-53
2023/01/20 06:26:06;;;;;;;13.33;11.70;;;3.60;99.90;;;;;;5012222;28;20208;-50
2023/01/20 06:28:32;;;;;;;13.27;11.67;;;3.60;99.90;;;;;;5012406;28;20169;-50
2023/01/20 06:31:06;;;;;;;13.83;11.77;;;3.60;99.90;;;;;;5012019;28;20426;-51
2023/01/20 06:33:32;;;;;;;12.30;10.93;;;3.60;99.90;;;;;;5011894;28;20302;-50
2023/01/20 06:35:58;;;;;;;14.03;11.93;;;3.50;99.90;;;;;;5011931;28;20412;-50
2023/01/20 06:38:25;;;;;;;14.10;12.37;;;3.50;99.90;;;;;;5012206;28;20419;-51
2023/01/20 06:40:56;;;;;;;14.57;11.97;;;3.40;99.90;;;;;;5012148;28;20183;-51
2023/01/20 06:43:22;;;;;;;14.23;12.43;;;3.40;99.90;;;;;;5011992;28;20431;-52
2023/01/20 06:45:47;;;;;;;18.60;14.70;;;3.40;99.90;;;;;;5011591;28;20820;-51
2023/01/20 06:48:13;;;;;;;18.97;14.77;;;3.40;99.90;;;;;;5011768;28;20645;-51
2023/01/20 06:50:38;;;;;;;18.03;13.93;;;3.50;99.90;;;;;;5011865;28;20165;-50
2023/01/20 06:53:04;;;;;;;17.83;13.23;;;3.50;99.90;;;;;;5011147;28;20195;-51
2023/01/20 06:55:29;;;;;;;15.50;13.63;;;3.50;99.90;;;;;;5011692;28;20204;-51
2023/01/20 06:57:55;;;;;;;15.47;12.63;;;3.50;99.90;;;;;;5011647;28;20255;-50
2023/01/20 07:00:21;;;;;;;16.50;12.80;;;3.50;99.90;;;;;;5011761;28;20180;-51
2023/01/20 07:02:50;;;;;;;16.23;13.53;;;3.50;99.90;;;;;;5011577;28;20207;-53
2023/01/20 07:05:15;;;;;;;16.33;13.57;;;3.50;99.90;;;;;;5011218;28;20454;-51
2023/01/20 07:07:44;;;;;;;15.33;13.37;;;3.50;99.90;;;;;;5011519;28;20423;-55
2023/01/20 07:10:11;;;;;;;15.40;11.97;;;3.40;99.90;;;;;;5010954;28;20173;-51
2023/01/20 07:12:36;;;;;;;14.63;13.13;;;3.40;99.90;;;;;;5011575;28;20442;-48
2023/01/20 07:15:02;;;;;;;14.73;12.83;;;3.20;99.90;;;;;;5011063;28;20439;-50
2023/01/20 07:17:28;;;;;;;15.63;12.63;;;3.10;99.90;;;;;;5011578;28;20547;-52
2023/01/20 07:19:53;;;;;;;13.70;11.73;;;3.10;99.90;;;;;;5011360;28;20169;-49
2023/01/20 07:22:19;;;;;;;15.23;13.17;;;3.20;99.90;;;;;;5011574;28;20172;-50
2023/01/20 07:24:44;;;;;;;16.93;13.27;;;3.20;99.90;;;;;;5010925;28;20188;-52
2023/01/20 07:27:10;;;;;;;15.33;13.50;;;3.20;99.90;;;;;;5011408;28;20495;-52
2023/01/20 07:29:36;;;;;;;147.53;93.50;;;3.20;99.90;;;;;;5011268;28;20495;-52
2023/01/20 07:32:02;;;;;;;41.97;35.50;;;3.10;99.90;;;;;;5011319;28;20167;-51
2023/01/20 07:34:28;;;;;;;23.23;20.83;;;3.10;99.90;;;;;;5010917;28;20439;-50
2023/01/20 07:36:53;;;;;;;17.53;15.63;;;3.10;99.90;;;;;;5011129;28;20545;-52
2023/01/20 07:39:19;;;;;;;17.60;14.83;;;3.10;99.90;;;;;;5011309;28;20222;-53
2023/01/20 07:41:47;;;;;;;17.70;15.77;;;3.10;99.90;;;;;;5011275;28;20578;-53
2023/01/20 07:44:14;;;;;;;15.37;13.77;;;3.10;99.90;;;;;;5010731;28;20184;-51
2023/01/20 07:46:40;;;;;;;14.07;12.43;;;3.10;99.90;;;;;;5011002;28;20419;-51
2023/01/20 07:49:06;;;;;;;15.43;13.00;;;3.10;99.90;;;;;;5011125;28;20400;-53
2023/01/20 07:51:31;;;;;;;13.67;12.03;;;3.10;99.90;;;;;;5010666;28;20200;-54
2023/01/20 07:53:57;;;;;;;13.97;11.87;;;3.10;99.90;;;;;;5010259;28;20250;-53
2023/01/20 07:56:25;;;;;;;16.07;12.27;;;3.10;99.90;;;;;;5011143;28;20280;-56
2023/01/20 07:58:52;;;;;;;14.87;12.13;;;3.10;99.90;;;;;;5011207;28;20169;-51
2023/01/20 08:01:27;;;;;;;13.93;12.27;;;3.10;99.90;;;;;;5011142;28;20481;-50
2023/01/20 08:03:54;;;;;;;14.70;12.40;;;3.10;99.90;;;;;;5010790;28;20763;-51
2023/01/20 08:06:22;;;;;;;13.90;12.23;;;3.10;99.90;;;;;;5010999;28;20454;-49
2023/01/20 08:08:48;;;;;;;15.07;13.40;;;3.10;99.90;;;;;;5011051;28;20415;-53
2023/01/20 08:11:15;;;;;;;15.37;13.37;;;3.20;99.90;;;;;;5010993;28;20415;-51
2023/01/20 08:13:41;;;;;;;15.77;14.07;;;3.20;99.90;;;;;;5010652;28;20443;-50
2023/01/20 08:16:08;;;;;;;16.97;14.03;;;3.20;99.90;;;;;;5011028;28;20741;-49
2023/01/20 08:18:35;;;;;;;15.17;12.70;;;3.20;99.90;;;;;;5011090;28;20562;-50
2023/01/20 08:21:05;;;;;;;15.77;12.70;;;3.20;99.90;;;;;;5013000;28;20411;-51
2023/01/20 08:23:31;;;;;;;13.13;11.83;;;3.20;99.90;;;;;;5014073;28;20435;-47
2023/01/20 08:26:01;;;;;;;14.93;12.83;;;3.20;99.90;;;;;;5014199;28;20443;-49
2023/01/20 08:28:28;;;;;;;95.00;73.67;;;3.20;99.90;;;;;;5014719;28;20400;-52
2023/01/20 08:31:01;;;;;;;37.17;33.20;;;3.20;99.90;;;;;;5014543;28;20403;-50
2023/01/20 08:33:26;;;;;;;42.73;38.33;;;3.20;99.90;;;;;;5013998;28;20442;-53
2023/01/20 08:35:54;;;;;;;16.77;14.77;;;3.20;99.90;;;;;;5014000;28;20868;-49
2023/01/20 08:38:20;;;;;;;15.90;13.07;;;3.10;99.90;;;;;;5014100;28;20174;-51
2023/01/20 08:40:45;;;;;;;16.03;12.80;;;3.20;99.90;;;;;;5013624;28;20498;-50
2023/01/20 08:43:12;;;;;;;14.17;12.70;;;3.20;99.90;;;;;;5013853;28;20204;-52
2023/01/20 08:45:38;;;;;;;15.43;12.87;;;4.40;99.90;;;;;;5013963;28;20258;-52
2023/01/20 08:48:04;;;;;;;15.00;13.33;;;3.20;99.90;;;;;;5014204;28;20764;-51
2023/01/20 08:50:29;;;;;;;16.77;13.90;;;3.20;99.90;;;;;;5014015;28;20406;-50
2023/01/20 08:52:55;;;;;;;16.13;13.93;;;3.20;99.90;;;;;;5013834;28;20557;-52
2023/01/20 08:55:20;;;;;;;16.43;13.03;;;3.30;99.90;;;;;;5013551;28;20177;-52
2023/01/20 08:57:46;;;;;;;17.47;15.27;;;3.30;99.90;;;;;;5013860;28;20179;-52
2023/01/20 09:00:12;;;;;;;14.97;13.00;;;3.30;99.90;;;;;;5013879;28;20169;-56
2023/01/20 09:02:39;;;;;;;16.47;14.70;;;3.40;99.90;;;;;;5013748;28;20271;-56
2023/01/20 09:05:05;;;;;;;16.13;14.07;;;3.40;99.90;;;;;;5013276;28;20470;-52
2023/01/20 09:07:31;;;;;;;17.13;14.90;;;3.40;99.90;;;;;;5013696;28;20207;-52
2023/01/20 09:09:56;;;;;;;16.07;14.30;;;3.50;99.90;;;;;;5013428;28;20435;-52
2023/01/20 09:12:22;;;;;;;29.53;26.63;;;3.50;99.90;;;;;;5013670;28;20171;-52
2023/01/20 09:14:47;;;;;;;24.97;21.97;;;3.50;99.90;;;;;;5013014;28;20196;-55
2023/01/20 09:17:13;;;;;;;17.20;15.47;;;3.50;99.90;;;;;;5013497;28;20248;-54
2023/01/20 09:19:39;;;;;;;18.17;15.50;;;3.60;99.90;;;;;;5013562;28;20218;-52
2023/01/20 09:22:04;;;;;;;19.07;14.70;;;3.60;99.90;;;;;;5013546;28;20176;-51
2023/01/20 09:24:30;;;;;;;16.07;13.73;;;3.60;99.90;;;;;;5012999;28;20200;-51
2023/01/20 09:26:56;;;;;;;17.83;15.87;;;3.60;99.90;;;;;;5013430;28;20251;-56
2023/01/20 09:29:21;;;;;;;15.87;13.93;;;3.70;99.90;;;;;;5013371;28;20239;-52
2023/01/20 09:31:57;;;;;;;20.63;15.10;;;3.70;99.90;;;;;;5012462;28;20169;-52
2023/01/20 09:34:26;;;;;;;15.27;13.67;;;3.60;99.90;;;;;;5012815;28;20208;-51
2023/01/20 09:45:55;;;;;;;15.10;12.93;;;3.80;99.90;;;;;;4990884;28;20451;-56
2023/01/20 09:54:27;;;;;;;17.60;14.37;;;3.90;99.90;;;;;;4991053;28;20841;-53
2023/01/20 09:56:58;;;;;;;15.43;13.47;;;3.90;99.90;;;;;;4990811;28;20180;-53
2023/01/20 09:59:32;;;;;;;15.07;12.97;;;3.80;99.90;;;;;;4990788;28;20573;-50
2023/01/20 10:02:03;;;;;;;15.17;13.40;;;3.80;99.90;;;;;;4990860;28;20201;-51
2023/01/20 10:04:47;;;;;;;15.50;13.13;;;3.80;99.90;;;;;;4990433;28;20275;-52
2023/01/20 10:07:18;;;;;;;17.23;13.53;;;3.80;99.90;;;;;;4990632;28;20173;-51
2023/01/20 10:10:11;;;;;;;16.90;13.50;;;3.90;99.90;;;;;;4990758;28;20201;-50
2023/01/20 10:12:46;;;;;;;18.07;12.90;;;3.90;99.90;;;;;;4987785;28;20177;-52
2023/01/20 10:15:18;;;;;;;17.10;13.50;;;4.00;99.90;;;;;;4990306;28;20199;-52
2023/01/20 10:18:08;;;;;;;16.57;14.60;;;3.90;99.90;;;;;;4990721;28;20608;-50
2023/01/20 10:20:55;;;;;;;16.53;13.60;;;3.80;99.90;;;;;;5009962;28;20235;-53
2023/01/20 10:23:35;;;;;;;15.20;13.57;;;3.90;99.90;;;;;;5012382;28;20250;-52
2023/01/20 10:26:15;;;;;;;14.43;12.67;;;3.90;99.90;;;;;;5012260;28;20200;-50
2023/01/20 10:28:46;;;;;;;14.57;13.03;;;2.90;99.90;;;;;;5012287;28;20764;-51
2023/01/20 10:31:16;;;;;;;16.03;14.20;;;4.00;99.90;;;;;;5012382;28;20200;-50
2023/01/20 10:33:45;;;;;;;15.90;13.27;;;3.90;99.90;;;;;;5011837;28;20212;-53
2023/01/20 10:36:30;;;;;;;16.27;13.67;;;3.80;99.90;;;;;;5012190;28;20238;-49
2023/01/20 10:39:09;;;;;;;15.90;13.80;;;3.80;99.90;;;;;;5012245;28;20187;-50
2023/01/20 10:41:47;;;;;;;15.57;13.20;;;3.10;99.90;;;;;;5012113;28;20222;-49
2023/01/20 10:44:14;;;;;;;15.67;13.73;;;3.60;99.90;;;;;;5011601;28;20199;-55
2023/01/20 10:46:51;;;;;;;15.00;13.40;;;3.50;99.90;;;;;;5011999;28;20200;-50
2023/01/20 10:49:26;;;;;;;16.67;13.70;;;3.40;99.90;;;;;;5012160;28;20164;-50
2023/01/20 10:52:40;;;;;;;16.33;14.20;;;3.30;99.90;;;;;;5011881;28;20172;-51
2023/01/20 10:55:40;;;;;;;14.40;12.87;;;3.30;99.90;;;;;;4947974;29;20186;-52
2023/01/20 10:58:13;;;;;;;15.00;13.37;;;3.40;99.90;;;;;;4951151;29;20703;-50
2023/01/20 11:00:40;;;;;;;16.27;13.87;;;3.10;99.90;;;;;;4934669;29;20657;-51
2023/01/20 11:03:14;;;;;;;16.10;13.17;;;3.00;99.90;;;;;;4951060;29;20688;-50
2023/01/20 11:05:41;;;;;;;15.00;13.27;;;2.80;99.90;;;;;;4950838;29;20314;-50
2023/01/20 11:08:21;;;;;;;16.00;14.13;;;2.70;99.90;;;;;;4951140;29;20171;-52
2023/01/20 11:10:52;;;;;;;16.67;13.87;;;2.70;99.90;;;;;;4951065;29;20241;-53
2023/01/20 11:13:18;;;;;;;16.67;13.93;;;2.60;99.90;;;;;;4950844;29;20612;-53
2023/01/20 11:15:47;;;;;;;15.53;13.43;;;2.80;99.90;;;;;;4950856;29;20185;-50
2023/01/20 11:18:15;;;;;;;14.77;12.87;;;2.80;99.90;;;;;;4950793;29;20202;-53
2023/01/20 11:20:46;;;;;;;19.20;13.43;;;2.80;99.90;;;;;;4950925;29;20182;-53
2023/01/20 11:23:29;;;;;;;15.47;13.10;;;2.90;99.90;;;;;;4950862;29;20534;-52
2023/01/20 11:26:00;;;;;;;15.83;13.70;;;2.90;99.90;;;;;;4950697;29;20210;-54
2023/01/20 11:28:35;;;;;;;15.37;12.83;;;2.90;99.90;;;;;;4950833;29;20525;-51
2023/01/20 11:31:03;;;;;;;15.70;14.00;;;2.90;99.90;;;;;;4960294;28;20185;-51
2023/01/20 11:36:17;;;;;;;16.80;13.93;;;2.90;99.90;;;;;;5116686;23;20249;-51
2023/01/20 11:38:49;;;;;;;17.27;13.80;;;2.90;99.90;;;;;;5029924;28;20164;-50
2023/01/20 11:41:21;;;;;;;15.27;13.67;;;2.90;99.90;;;;;;5030983;28;20172;-53
2023/01/20 11:43:49;;;;;;;15.57;13.90;;;3.00;99.90;;;;;;5031892;28;20386;-51
2023/01/20 11:46:18;;;;;;;19.13;13.93;;;3.00;99.90;;;;;;5050622;28;20203;-50
2023/01/20 11:48:44;;;;;;;15.77;13.07;;;3.00;99.90;;;;;;5051022;28;20232;-51
2023/01/20 11:51:24;;;;;;;17.47;14.27;;;3.00;99.90;;;;;;5050664;28;20170;-51
2023/01/20 11:54:09;;;;;;;15.83;13.40;;;2.90;99.90;;;;;;5042507;28;20501;-51
2023/01/20 11:56:41;;;;;;;16.13;13.67;;;2.90;99.90;;;;;;5053310;28;20644;-52
2023/01/20 11:59:46;;;;;;;15.80;13.90;;;2.70;99.90;;;;;;5054876;28;20167;-53
2023/01/20 12:02:11;;;;;;;15.90;12.93;;;2.50;99.90;;;;;;4973881;28;20421;-50
2023/01/20 12:05:13;;;;;;;16.80;13.70;;;2.40;99.90;;;;;;4973265;28;20209;-52
2023/01/20 12:07:44;;;;;;;16.50;14.60;;;2.30;99.90;;;;;;4973565;28;20173;-53
2023/01/20 12:10:27;;;;;;;17.10;14.70;;;2.30;99.90;;;;;;4987836;28;20430;-51
2023/01/20 12:13:00;;;;;;;15.67;13.80;;;2.30;99.90;;;;;;4993069;28;20556;-51
2023/01/20 12:15:32;;;;;;;17.20;14.43;;;2.40;99.90;;;;;;4992802;28;20276;-50
2023/01/20 12:18:10;;;;;;;18.40;15.70;;;2.40;99.90;;;;;;4992720;28;20894;-51
2023/01/20 12:20:43;;;;;;;17.50;14.60;;;2.40;99.90;;;;;;4992916;28;20408;-50
2023/01/20 12:23:21;;;;;;;15.57;13.90;;;2.50;99.90;;;;;;4992887;28;20177;-51
2023/01/20 12:25:56;;;;;;;17.30;15.43;;;2.70;99.90;;;;;;4992199;28;20480;-50
2023/01/20 12:29:03;;;;;;;17.10;14.63;;;2.70;99.90;;;;;;4992954;28;20443;-50
2023/01/20 12:31:30;;;;;;;17.77;15.20;;;2.80;99.90;;;;;;4915843;29;20191;-50
2023/01/20 12:34:09;;;;;;;17.97;16.07;;;2.90;99.90;;;;;;4915056;29;20416;-51
2023/01/20 12:37:04;;;;;;;16.53;14.83;;;3.20;99.90;;;;;;4918589;28;20211;-52
2023/01/20 12:40:06;;;;;;;16.13;14.43;;;3.40;99.90;;;;;;4972966;28;20826;-52
2023/01/20 12:42:37;;;;;;;18.30;16.30;;;3.40;99.90;;;;;;4937350;28;20189;-51
2023/01/20 12:45:02;;;;;;;17.03;15.23;;;3.50;99.90;;;;;;4953133;28;20256;-54
2023/01/20 12:47:37;;;;;;;18.40;16.50;;;3.30;99.90;;;;;;4953608;29;20202;-51
2023/01/20 12:50:10;;;;;;;18.57;16.53;;;3.40;99.90;;;;;;4953744;29;20262;-53
2023/01/20 12:52:55;;;;;;;17.40;15.57;;;3.40;99.90;;;;;;4953493;29;20187;-51
2023/01/20 12:55:29;;;;;;;18.93;16.27;;;3.30;99.90;;;;;;4953060;29;20206;-50
2023/01/20 12:58:22;;;;;;;17.40;15.43;;;3.20;99.90;;;;;;4953143;29;20192;-52
2023/01/20 13:01:05;;;;;;;18.20;16.30;;;2.90;99.90;;;;;;4915332;29;20243;-51
2023/01/20 13:04:04;;;;;;;19.47;16.03;;;2.80;99.90;;;;;;4933992;29;20411;-52
2023/01/20 13:06:41;;;;;;;20.87;18.23;;;2.90;99.90;;;;;;4923420;29;20254;-52
2023/01/20 13:09:40;;;;;;;19.23;17.13;;;2.90;99.90;;;;;;4934181;29;20210;-51
2023/01/20 13:12:24;;;;;;;19.00;16.97;;;2.90;99.90;;;;;;4934161;29;20179;-51
2023/01/20 13:14:57;;;;;;;20.10;17.90;;;2.90;99.90;;;;;;4933762;29;20194;-53
2023/01/20 13:17:44;;;;;;;19.60;17.50;;;3.10;99.90;;;;;;4941794;28;20182;-52